createdAt,value
2018-05-16T00:02:15.261Z,10.57
2018-05-16T00:04:43.581Z,10.93
2018-05-16T00:07:11.933Z,11.17
2018-05-16T00:09:40.262Z,12.80
2018-05-16T00:12:08.608Z,10.40
2018-05-16T00:14:36.932Z,10.90
2018-05-16T00:17:05.264Z,15.03
2018-05-16T00:19:33.613Z,11.67
2018-05-16T00:22:01.941Z,12.70
2018-05-16T00:24:30.288Z,11.50
2018-05-16T00:26:58.620Z,11.53
2018-05-16T00:29:26.969Z,14.37
2018-05-16T00:31:55.302Z,17.20
2018-05-16T00:34:23.649Z,10.20
2018-05-16T00:36:51.977Z,13.30
2018-05-16T00:39:20.325Z,9.57
2018-05-16T00:41:48.649Z,12.43
2018-05-16T00:44:17.002Z,18.30
2018-05-16T00:46:45.328Z,8.83
2018-05-16T00:49:13.683Z,13.23
2018-05-16T00:51:42.009Z,11.47
2018-05-16T00:54:10.356Z,11.03
2018-05-16T00:56:38.687Z,12.10
2018-05-16T00:59:07.028Z,11.13
2018-05-16T01:01:35.353Z,9.97
2018-05-16T01:04:03.697Z,7.13
2018-05-16T01:06:32.016Z,8.13
2018-05-16T01:09:00.363Z,11.87
2018-05-16T01:11:28.688Z,9.07
2018-05-16T01:13:57.024Z,7.80
2018-05-16T01:16:25.372Z,7.10
2018-05-16T01:18:53.697Z,10.87
2018-05-16T01:21:22.048Z,9.73
2018-05-16T01:23:50.371Z,7.10
2018-05-16T01:26:18.717Z,17.73
2018-05-16T01:28:47.036Z,8.30
2018-05-16T01:31:15.382Z,8.13
2018-05-16T01:33:43.708Z,8.70
2018-05-16T01:36:12.053Z,10.07
2018-05-16T01:38:40.372Z,6.77
2018-05-16T01:41:08.710Z,6.20
2018-05-16T01:43:37.039Z,6.50
2018-05-16T01:46:05.380Z,5.90
2018-05-16T01:48:33.702Z,6.70
2018-05-16T01:51:02.049Z,11.53
2018-05-16T01:53:30.369Z,7.90
2018-05-16T01:55:58.720Z,11.10
2018-05-16T01:58:27.048Z,9.40
2018-05-16T02:00:55.398Z,11.57
2018-05-16T02:03:23.724Z,10.43
2018-05-16T02:05:52.072Z,12.13
2018-05-16T02:08:20.412Z,11.80
2018-05-16T02:10:48.757Z,13.23
2018-05-16T02:13:17.080Z,13.50
2018-05-16T02:15:45.408Z,10.70
2018-05-16T02:18:13.765Z,12.13
2018-05-16T02:20:42.097Z,10.70
2018-05-16T02:23:10.445Z,10.20
2018-05-16T02:25:38.764Z,6.90
2018-05-16T02:28:07.107Z,6.10
2018-05-16T02:30:35.434Z,4.60
2018-05-16T02:33:03.776Z,5.90
2018-05-16T02:35:32.100Z,5.30
2018-05-16T02:38:00.448Z,4.40
2018-05-16T02:40:28.766Z,5.67
2018-05-16T02:42:57.120Z,7.60
2018-05-16T02:45:25.444Z,6.30
2018-05-16T02:47:53.793Z,6.20
2018-05-16T02:50:22.114Z,4.80
2018-05-16T02:52:50.449Z,4.60
2018-05-16T02:55:18.772Z,5.27
2018-05-16T02:57:47.121Z,5.57
2018-05-16T03:00:15.446Z,7.83
2018-05-16T03:02:43.786Z,7.43
2018-05-16T03:05:12.121Z,32.83
2018-05-16T03:07:40.465Z,8.13
2018-05-16T03:10:08.785Z,6.80
2018-05-16T03:12:37.129Z,8.70
2018-05-16T03:15:05.473Z,8.03
2018-05-16T03:17:33.801Z,8.00
2018-05-16T03:20:02.125Z,6.93
2018-05-16T03:22:30.488Z,5.80
2018-05-16T03:24:58.799Z,4.20
2018-05-16T03:27:27.117Z,3.13
2018-05-16T03:29:55.465Z,3.50
2018-05-16T03:32:23.784Z,6.40
2018-05-16T03:34:52.133Z,4.80
2018-05-16T03:37:26.474Z,5.15
2018-05-16T03:39:54.816Z,6.70
2018-05-16T03:42:23.146Z,12.63
2018-05-16T03:44:51.484Z,4.80
2018-05-16T03:47:19.809Z,4.67
2018-05-16T03:49:48.156Z,8.83
2018-05-16T03:52:16.476Z,4.87
2018-05-16T03:54:44.820Z,4.70
2018-05-16T03:57:24.936Z,4.47
2018-05-16T04:00:05.305Z,3.93
2018-05-16T04:05:35.394Z,4.33
2018-05-16T04:08:03.709Z,4.37
2018-05-16T04:10:32.044Z,5.53
2018-05-16T04:13:00.372Z,4.00
2018-05-16T04:15:28.718Z,4.43
2018-05-16T04:17:57.045Z,5.10
2018-05-16T04:20:25.389Z,4.90
2018-05-16T04:22:53.708Z,4.70
2018-05-16T04:25:22.053Z,4.90
2018-05-16T04:27:50.378Z,7.40
2018-05-16T04:30:18.724Z,4.80
2018-05-16T04:32:47.110Z,5.07
2018-05-16T04:35:15.403Z,5.87
2018-05-16T04:37:43.850Z,6.10
2018-05-16T04:40:12.469Z,6.10
2018-05-16T04:42:40.845Z,7.03
2018-05-16T04:45:09.173Z,5.43
2018-05-16T04:47:38.358Z,7.07
2018-05-16T04:50:07.840Z,5.50
2018-05-16T04:52:36.185Z,5.37
2018-05-16T04:55:04.587Z,5.90
2018-05-16T04:57:32.934Z,4.95
2018-05-16T05:00:01.274Z,5.67
2018-05-16T05:02:29.660Z,7.57
2018-05-16T05:04:58.070Z,7.97
2018-05-16T05:07:26.856Z,7.60
2018-05-16T05:09:55.174Z,6.77
2018-05-16T05:12:23.573Z,7.33
2018-05-16T05:14:51.901Z,7.22
2018-05-16T05:17:20.247Z,7.33
2018-05-16T05:19:48.570Z,7.67
2018-05-16T05:22:16.916Z,8.55
2018-05-16T05:24:45.250Z,10.13
2018-05-16T05:27:13.605Z,9.27
2018-05-16T05:29:41.944Z,11.47
2018-05-16T05:32:11.222Z,13.27
2018-05-16T05:34:39.545Z,11.00
2018-05-16T05:37:07.908Z,10.43
2018-05-16T05:39:36.240Z,12.37
2018-05-16T05:42:04.568Z,20.13
2018-05-16T05:44:32.917Z,10.40
2018-05-16T05:47:01.245Z,11.40
2018-05-16T05:49:29.597Z,9.77
2018-05-16T05:51:57.929Z,12.23
2018-05-16T05:54:26.285Z,12.97
2018-05-16T05:56:54.612Z,13.97
2018-05-16T05:59:22.968Z,12.53
2018-05-16T06:01:51.309Z,14.77
2018-05-16T06:04:19.658Z,16.27
2018-05-16T06:06:47.992Z,17.00
2018-05-16T06:09:16.344Z,19.90
2018-05-16T06:11:44.686Z,19.27
2018-05-16T06:14:13.040Z,23.73
2018-05-16T06:16:41.373Z,19.60
2018-05-16T06:19:09.724Z,17.53
2018-05-16T06:21:38.060Z,17.10
2018-05-16T06:24:06.409Z,21.67
2018-05-16T06:26:34.745Z,15.47
2018-05-16T06:29:03.100Z,18.30
2018-05-16T06:31:31.432Z,21.40
2018-05-16T06:33:59.793Z,17.30
2018-05-16T06:36:28.129Z,14.63
2018-05-16T06:38:56.485Z,20.33
2018-05-16T06:41:24.812Z,19.37
2018-05-16T06:43:53.179Z,23.70
2018-05-16T06:46:21.509Z,16.20
2018-05-16T06:48:49.840Z,21.53
2018-05-16T06:51:18.192Z,18.60
2018-05-16T06:53:46.529Z,16.83
2018-05-16T06:56:14.880Z,20.50
2018-05-16T06:58:43.217Z,24.20
2018-05-16T07:01:11.573Z,20.90
2018-05-16T07:03:39.904Z,22.47
2018-05-16T07:06:08.257Z,18.57
2018-05-16T07:08:36.588Z,29.73
2018-05-16T07:11:04.949Z,21.23
2018-05-16T07:13:33.320Z,24.77
2018-05-16T07:16:01.677Z,22.57
2018-05-16T07:18:30.008Z,25.70
2018-05-16T07:20:58.357Z,26.10
2018-05-16T07:23:26.693Z,24.53
2018-05-16T07:25:55.045Z,24.63
2018-05-16T07:28:23.378Z,23.63
2018-05-16T07:30:51.734Z,36.17
2018-05-16T07:33:20.064Z,22.40
2018-05-16T07:35:48.416Z,30.03
2018-05-16T07:38:16.749Z,31.43
2018-05-16T07:40:45.104Z,35.57
2018-05-16T07:43:13.441Z,30.03
2018-05-16T07:45:41.773Z,28.20
2018-05-16T07:48:10.125Z,25.03
2018-05-16T07:50:38.460Z,26.03
2018-05-16T07:53:06.808Z,29.13
2018-05-16T07:55:35.141Z,33.90
2018-05-16T07:58:03.493Z,25.90
2018-05-16T08:00:31.828Z,27.77
2018-05-16T08:03:00.179Z,26.60
2018-05-16T08:05:28.525Z,31.00
2018-05-16T08:07:56.878Z,31.50
2018-05-16T08:10:25.213Z,32.10
2018-05-16T08:12:53.568Z,31.20
2018-05-16T08:15:21.896Z,28.37
2018-05-16T08:17:50.253Z,29.70
2018-05-16T08:20:18.593Z,31.17
2018-05-16T08:22:46.999Z,22.83
2018-05-16T08:25:15.281Z,32.83
2018-05-16T08:27:43.633Z,42.13
2018-05-16T08:30:11.969Z,29.63
2018-05-16T08:32:40.333Z,26.40
2018-05-16T08:35:08.660Z,28.40
2018-05-16T08:37:37.021Z,31.77
2018-05-16T08:40:05.359Z,27.80
2018-05-16T08:42:33.708Z,26.03
2018-05-16T08:45:02.044Z,34.10
2018-05-16T08:47:30.372Z,42.73
2018-05-16T08:49:58.736Z,23.70
2018-05-16T08:52:27.061Z,25.80
2018-05-16T08:54:55.417Z,34.23
2018-05-16T08:57:23.748Z,27.57
2018-05-16T08:59:52.110Z,30.47
2018-05-16T09:02:20.449Z,29.93
2018-05-16T09:04:48.813Z,33.30
2018-05-16T09:07:17.141Z,34.27
2018-05-16T09:09:45.502Z,25.07
2018-05-16T09:12:13.845Z,36.80
2018-05-16T09:14:42.192Z,27.77
2018-05-16T09:17:10.580Z,27.23
2018-05-16T09:19:38.880Z,28.73
2018-05-16T09:22:07.212Z,27.40
2018-05-16T09:24:35.568Z,23.67
2018-05-16T09:27:03.913Z,22.23
2018-05-16T09:29:32.273Z,23.83
2018-05-16T09:32:00.596Z,28.03
2018-05-16T09:34:28.959Z,27.20
2018-05-16T09:36:57.294Z,25.83
2018-05-16T09:39:25.652Z,33.60
2018-05-16T09:41:53.989Z,27.57
2018-05-16T09:44:22.349Z,29.37
2018-05-16T09:46:50.676Z,41.97
2018-05-16T09:49:19.032Z,24.10
2018-05-16T09:51:47.377Z,28.50
2018-05-16T09:54:15.710Z,28.67
2018-05-16T09:56:44.065Z,28.93
2018-05-16T09:59:12.404Z,36.40
2018-05-16T10:01:40.757Z,28.90
2018-05-16T10:04:09.097Z,35.13
2018-05-16T10:06:37.448Z,24.37
2018-05-16T10:09:05.871Z,25.67
2018-05-16T10:11:34.144Z,45.70
2018-05-16T10:14:02.472Z,21.43
2018-05-16T10:16:30.837Z,32.93
2018-05-16T10:18:59.169Z,21.87
2018-05-16T10:21:27.516Z,28.83
2018-05-16T10:23:55.851Z,24.93
2018-05-16T10:26:24.205Z,28.77
2018-05-16T10:28:52.545Z,27.47
2018-05-16T10:31:20.904Z,30.27
2018-05-16T10:33:49.232Z,33.93
2018-05-16T10:36:17.589Z,30.23
2018-05-16T10:38:45.927Z,28.87
2018-05-16T10:41:14.347Z,29.10
2018-05-16T10:43:42.613Z,26.90
2018-05-16T10:46:10.971Z,33.90
2018-05-16T10:48:39.304Z,28.60
2018-05-16T10:51:07.673Z,27.37
2018-05-16T10:53:36.013Z,22.50
2018-05-16T10:56:04.345Z,29.00
2018-05-16T10:58:32.702Z,28.97
2018-05-16T11:01:01.033Z,25.97
2018-05-16T11:03:29.385Z,29.40
2018-05-16T11:05:57.715Z,26.00
2018-05-16T11:08:26.077Z,28.53
2018-05-16T11:10:54.404Z,26.30
2018-05-16T11:13:22.760Z,24.83
2018-05-16T11:15:51.120Z,27.97
2018-05-16T11:18:19.477Z,23.97
2018-05-16T11:20:47.810Z,30.20
2018-05-16T11:23:16.176Z,27.67
2018-05-16T11:25:44.510Z,23.13
2018-05-16T11:28:12.872Z,27.53
2018-05-16T11:30:41.196Z,31.70
2018-05-16T11:33:09.553Z,26.00
2018-05-16T11:35:37.881Z,26.87
2018-05-16T11:38:06.243Z,25.03
2018-05-16T11:40:34.564Z,26.33
2018-05-16T11:43:02.917Z,33.13
2018-05-16T11:45:31.249Z,25.37
2018-05-16T11:47:59.613Z,24.93
2018-05-16T11:50:27.945Z,19.80
2018-05-16T11:52:56.317Z,20.63
2018-05-16T11:55:27.025Z,27.70
2018-05-16T11:57:55.380Z,25.53
2018-05-16T12:00:23.732Z,24.10
2018-05-16T12:02:52.091Z,23.13
2018-05-16T12:05:20.425Z,25.20
2018-05-16T12:07:48.760Z,28.10
2018-05-16T12:10:17.118Z,22.17
2018-05-16T12:12:45.453Z,22.50
2018-05-16T12:15:13.800Z,26.20
2018-05-16T12:17:42.138Z,27.33
2018-05-16T12:20:10.494Z,26.63
2018-05-16T12:22:38.828Z,25.13
2018-05-16T12:25:07.197Z,25.83
2018-05-16T12:27:35.530Z,24.47
2018-05-16T12:30:03.880Z,31.03
2018-05-16T12:32:32.212Z,26.07
2018-05-16T12:35:00.568Z,25.50
2018-05-16T12:37:28.905Z,27.27
2018-05-16T12:39:57.261Z,27.03
2018-05-16T12:42:25.594Z,23.70
2018-05-16T12:44:53.940Z,31.90
2018-05-16T12:47:22.271Z,23.73
2018-05-16T12:49:50.630Z,31.27
2018-05-16T12:52:18.965Z,24.00
2018-05-16T12:54:47.308Z,20.50
2018-05-16T12:57:15.646Z,30.63
2018-05-16T12:59:44.024Z,23.47
2018-05-16T13:02:12.340Z,23.37
2018-05-16T13:04:40.681Z,29.30
2018-05-16T13:07:09.057Z,27.10
2018-05-16T13:09:37.367Z,19.07
2018-05-16T13:12:05.716Z,18.70
2018-05-16T13:14:34.061Z,26.60
2018-05-16T13:17:02.416Z,20.13
2018-05-16T13:19:30.749Z,27.70
2018-05-16T13:21:59.167Z,21.60
2018-05-16T13:24:27.505Z,20.63
2018-05-16T13:26:55.940Z,22.87
2018-05-16T13:29:24.247Z,21.17
2018-05-16T13:31:52.596Z,22.03
2018-05-16T13:34:20.941Z,18.17
2018-05-16T13:36:49.309Z,23.93
2018-05-16T13:39:17.636Z,20.23
2018-05-16T13:41:46.004Z,29.33
2018-05-16T13:44:14.349Z,31.13
2018-05-16T13:46:42.710Z,22.00
2018-05-16T13:49:11.053Z,23.30
2018-05-16T13:51:39.408Z,28.40
2018-05-16T13:54:07.789Z,21.50
2018-05-16T13:56:36.152Z,19.20
2018-05-16T13:59:04.497Z,29.73
2018-05-16T14:01:32.828Z,21.03
2018-05-16T14:04:01.197Z,22.53
2018-05-16T14:06:29.597Z,32.53
2018-05-16T14:08:57.180Z,24.30
2018-05-16T14:11:25.276Z,23.70
2018-05-16T14:13:53.628Z,24.90
2018-05-16T14:16:21.968Z,24.55
2018-05-16T14:18:50.328Z,22.98
2018-05-16T14:21:18.672Z,25.63
2018-05-16T14:23:47.821Z,25.00
2018-05-16T14:26:16.477Z,26.93
2018-05-16T14:28:45.245Z,26.50
2018-05-16T14:31:13.693Z,25.20
2018-05-16T14:33:42.220Z,24.17
2018-05-16T14:36:10.716Z,30.27
2018-05-16T14:38:39.869Z,23.87
2018-05-16T14:41:08.253Z,21.90
2018-05-16T14:43:36.650Z,22.77
2018-05-16T14:46:05.049Z,25.00
2018-05-16T14:48:33.522Z,24.60
2018-05-16T14:51:01.890Z,21.07
2018-05-16T14:53:30.277Z,24.58
2018-05-16T14:55:58.775Z,19.95
2018-05-16T14:58:27.301Z,23.80
2018-05-16T15:00:55.704Z,24.53
2018-05-16T15:03:24.148Z,24.50
2018-05-16T15:05:52.591Z,20.83
2018-05-16T15:08:21.055Z,22.47
2018-05-16T15:10:49.388Z,21.73
2018-05-16T15:13:17.724Z,21.70
2018-05-16T15:15:46.085Z,23.03
2018-05-16T15:18:14.429Z,24.83
2018-05-16T15:20:42.824Z,25.92
2018-05-16T15:23:11.165Z,23.43
2018-05-16T15:25:39.524Z,23.23
2018-05-16T15:28:07.869Z,29.23
2018-05-16T15:30:36.240Z,26.83
2018-05-16T15:33:04.588Z,23.40
2018-05-16T15:35:33.029Z,24.58
2018-05-16T15:38:01.345Z,25.30
2018-05-16T15:40:29.719Z,25.45
2018-05-16T15:42:58.065Z,23.50
2018-05-16T15:45:26.421Z,26.80
2018-05-16T15:47:54.765Z,28.37
2018-05-16T15:50:23.130Z,32.40
2018-05-16T15:52:51.484Z,37.08
2018-05-16T15:55:19.834Z,34.17
2018-05-16T15:57:48.171Z,38.05
2018-05-16T16:00:16.533Z,30.53
2018-05-16T16:02:44.869Z,31.33
2018-05-16T16:05:13.228Z,23.50
2018-05-16T16:07:41.573Z,38.40
2018-05-16T16:10:09.961Z,27.17
2018-05-16T16:12:38.296Z,44.50
2018-05-16T16:15:06.628Z,48.35
2018-05-16T16:17:34.992Z,35.28
2018-05-16T16:20:03.328Z,28.63
2018-05-16T16:22:31.684Z,31.58
2018-05-16T16:25:00.025Z,29.47
2018-05-16T16:27:28.388Z,22.20
2018-05-16T16:29:56.729Z,16.77
2018-05-16T16:32:25.093Z,50.80
2018-05-16T16:34:53.432Z,22.83
2018-05-16T16:37:21.792Z,14.17
2018-05-16T16:39:50.128Z,18.67
2018-05-16T16:42:18.485Z,15.10
2018-05-16T16:44:46.974Z,19.57
2018-05-16T16:47:15.182Z,14.93
2018-05-16T16:49:43.513Z,15.90
2018-05-16T16:52:11.869Z,14.20
2018-05-16T16:54:40.200Z,18.83
2018-05-16T16:57:08.564Z,16.37
2018-05-16T16:59:36.895Z,22.93
2018-05-16T17:02:05.249Z,17.47
2018-05-16T17:04:33.673Z,19.20
2018-05-16T17:07:01.947Z,14.40
2018-05-16T17:09:30.339Z,15.10
2018-05-16T17:11:58.612Z,21.07
2018-05-16T17:14:27.871Z,19.73
2018-05-16T17:16:56.209Z,16.95
2018-05-16T17:19:24.564Z,15.40
2018-05-16T17:21:52.901Z,22.80
2018-05-16T17:24:21.252Z,14.70
2018-05-16T17:26:49.641Z,14.53
2018-05-16T17:29:17.929Z,12.43
2018-05-16T17:31:46.265Z,18.20
2018-05-16T17:34:14.621Z,19.55
2018-05-16T17:36:42.948Z,14.60
2018-05-16T17:39:11.304Z,14.13
2018-05-16T17:41:39.640Z,15.65
2018-05-16T17:44:07.993Z,18.57
2018-05-16T17:46:36.318Z,17.30
2018-05-16T17:49:04.673Z,21.43
2018-05-16T17:51:33.009Z,23.20
2018-05-16T17:54:01.368Z,25.63
2018-05-16T17:56:29.723Z,28.63
2018-05-16T17:58:58.741Z,21.23
2018-05-16T18:01:27.081Z,24.87
2018-05-16T18:03:55.440Z,28.70
2018-05-16T18:06:23.782Z,27.43
2018-05-16T18:08:52.140Z,31.97
2018-05-16T18:11:20.480Z,33.77
2018-05-16T18:14:01.325Z,28.48
2018-05-16T18:16:41.451Z,37.73
2018-05-16T18:19:09.801Z,39.73
2018-05-16T18:21:38.184Z,32.80
2018-05-16T18:24:06.515Z,22.92
2018-05-16T18:26:34.861Z,35.07
2018-05-16T18:29:03.232Z,28.25
2018-05-16T18:31:31.632Z,29.60
2018-05-16T18:34:00.798Z,33.90
2018-05-16T18:36:29.226Z,33.60
2018-05-16T18:38:57.665Z,41.50
2018-05-16T18:41:26.030Z,44.40
2018-05-16T18:43:54.422Z,37.53
2018-05-16T18:46:22.848Z,34.90
2018-05-16T18:48:51.264Z,36.67
2018-05-16T18:51:19.709Z,48.10
2018-05-16T18:53:48.265Z,41.13
2018-05-16T18:56:17.623Z,45.87
2018-05-16T18:58:46.029Z,34.10
2018-05-16T19:01:16.049Z,36.30
2018-05-16T19:03:44.416Z,31.98
2018-05-16T19:06:12.786Z,27.10
2018-05-16T19:08:41.203Z,42.15
2018-05-16T19:11:09.480Z,38.80
2018-05-16T19:13:37.879Z,43.93
2018-05-16T19:16:06.285Z,36.47
2018-05-16T19:18:34.653Z,38.47
2018-05-16T19:21:03.065Z,36.30
2018-05-16T19:23:31.564Z,31.77
2018-05-16T19:25:59.963Z,41.95
2018-05-16T19:28:28.372Z,36.25
2018-05-16T19:30:56.789Z,27.92
2018-05-16T19:33:25.130Z,40.70
2018-05-16T19:35:53.466Z,24.60
2018-05-16T19:38:22.155Z,40.65
2018-05-16T19:40:50.660Z,47.60
2018-05-16T19:43:19.029Z,36.70
2018-05-16T19:45:47.361Z,31.60
2018-05-16T19:48:15.809Z,24.40
2018-05-16T19:50:44.200Z,38.87
2018-05-16T19:53:12.832Z,46.57
2018-05-16T19:55:41.260Z,33.13
2018-05-16T19:58:09.691Z,33.33
2018-05-16T20:00:38.094Z,28.75
2018-05-16T20:03:06.453Z,26.70
2018-05-16T20:05:34.807Z,43.15
2018-05-16T20:08:03.157Z,31.13
2018-05-16T20:10:31.487Z,34.33
2018-05-16T20:12:59.856Z,45.00
2018-05-16T20:15:28.197Z,39.07
2018-05-16T20:17:56.552Z,45.77
2018-05-16T20:20:24.913Z,49.75
2018-05-16T20:22:53.293Z,34.70
2018-05-16T20:25:21.625Z,56.03
2018-05-16T20:27:50.091Z,45.77
2018-05-16T20:30:18.426Z,38.22
2018-05-16T20:32:46.783Z,37.47
2018-05-16T20:35:15.359Z,50.40
2018-05-16T20:37:43.788Z,47.40
2018-05-16T20:40:12.135Z,34.67
2018-05-16T20:42:40.480Z,32.30
2018-05-16T20:45:08.813Z,34.08
2018-05-16T20:47:37.169Z,43.28
2018-05-16T20:50:05.493Z,34.23
2018-05-16T20:52:33.865Z,41.10
2018-05-16T20:55:02.197Z,41.97
2018-05-16T20:57:30.550Z,40.60
2018-05-16T20:59:58.893Z,47.30
2018-05-16T21:02:27.255Z,41.00
2018-05-16T21:04:55.590Z,45.12
2018-05-16T21:07:23.948Z,36.75
2018-05-16T21:09:52.388Z,41.90
2018-05-16T21:12:20.925Z,39.87
2018-05-16T21:14:49.320Z,44.70
2018-05-16T21:17:17.666Z,46.30
2018-05-16T21:19:45.993Z,45.33
2018-05-16T21:22:14.345Z,37.33
2018-05-16T21:24:42.673Z,37.47
2018-05-16T21:27:11.001Z,39.00
2018-05-16T21:29:39.349Z,44.00
2018-05-16T21:32:07.669Z,43.50
2018-05-16T21:34:36.021Z,33.00
2018-05-16T21:37:04.358Z,39.90
2018-05-16T21:39:32.696Z,50.23
2018-05-16T21:42:01.022Z,40.93
2018-05-16T21:44:29.372Z,36.90
2018-05-16T21:46:57.705Z,30.23
2018-05-16T21:49:26.053Z,41.47
2018-05-16T21:51:54.377Z,40.87
2018-05-16T21:54:22.729Z,30.93
2018-05-16T21:56:51.068Z,39.50
2018-05-16T21:59:19.417Z,46.77
2018-05-16T22:01:47.742Z,41.27
2018-05-16T22:04:16.091Z,42.10
2018-05-16T22:06:44.412Z,51.97
2018-05-16T22:09:12.764Z,27.10
2018-05-16T22:11:41.096Z,46.57
2018-05-16T22:14:09.449Z,33.10
2018-05-16T22:16:37.777Z,38.47
2018-05-16T22:19:06.136Z,38.83
2018-05-16T22:21:34.456Z,47.13
2018-05-16T22:24:02.800Z,60.40
2018-05-16T22:26:31.124Z,37.80
2018-05-16T22:28:59.479Z,50.10
2018-05-16T22:31:33.316Z,32.60
2018-05-16T22:34:07.388Z,49.03
2018-05-16T22:36:41.432Z,57.97
2018-05-16T22:39:15.440Z,34.00
2018-05-16T22:41:49.441Z,39.60
2018-05-16T22:47:20.719Z,52.07
2018-05-16T22:49:49.065Z,37.87
2018-05-16T22:52:17.388Z,61.87
2018-05-16T22:54:45.734Z,54.50
2018-05-16T22:57:14.061Z,44.57
2018-05-16T22:59:42.410Z,45.47
2018-05-16T23:02:10.732Z,34.70
2018-05-16T23:04:39.076Z,38.27
2018-05-16T23:07:07.405Z,44.90
2018-05-16T23:09:35.756Z,46.87
2018-05-16T23:12:04.084Z,42.07
2018-05-16T23:14:32.437Z,50.87
2018-05-16T23:17:00.771Z,50.92
2018-05-16T23:19:29.121Z,35.77
2018-05-16T23:21:57.449Z,44.10
2018-05-16T23:24:25.796Z,44.90
2018-05-16T23:26:54.125Z,44.80
2018-05-16T23:29:22.476Z,55.60
2018-05-16T23:31:50.804Z,40.73
2018-05-16T23:34:19.153Z,41.53
2018-05-16T23:36:47.486Z,43.53
2018-05-16T23:39:15.831Z,46.47
2018-05-16T23:41:44.156Z,49.87
2018-05-16T23:44:12.512Z,50.10
2018-05-16T23:46:40.848Z,46.67
2018-05-16T23:49:09.198Z,46.75
2018-05-16T23:51:37.532Z,37.20
2018-05-16T23:54:05.889Z,37.35
2018-05-16T23:56:34.219Z,31.30
2018-05-16T23:59:02.567Z,40.13
